Portada
METAR-TAF:

METAR-TAF

Aeroports :

Hagåtña, Guam, Estats Units d'Amèrica

latitud: 13-29N, longitud: 144-48E, altitud: 91 m

Observació

L'informe es va fer fa 32 minuts, a les 13:54 UTC
Vent calma
Temperatura 25°C
Humitat 83%
Pressió 1011 hPa
Visibilitat: 16.1 km
Cel clar

METAR: PGUM 091354Z 00000KT 10SM CLR 25/22 A2986 RMK AO2 SLP105 T02500217 402890222

Hora: 00:26 (14:26 UTC)

Pronòstic

L'informe es va fer fa 2 hores i 56 minuts, a les 11:30 UTC
Pronòstic vàlid del 09 a les 12 UTC al 10 a les 18 UTC
Vent 6 kt del Est
Visibilitat: 10 km
Escasses núvols a una alçada de 2000 ft
Núvols disperses a una alçada de 4000 ft

TAF: PGUM 091130Z 0912/1018 09006KT P6SM FEW020 SCT040

Observacions i pronòstics meteorològics de més de 4000 aeroports (METAR i TAF).

Les estacions disponibles són els punts grocs i vermells al mapa.

Posi el ratolí al punt desitjat per veure el nom de l'estació.

Feu clic per veure les observacions i els pronòstics meteorològics.

Per canviar el mapa: feu clic els botons verds amb una creu de color negre per apropar; al botó verd amb un guió per allunyar la imatge; o en les fletxes verdes per a mapes adjacents.


METAR-TAF: